createdAt,value
2023-10-01T00:01:14.960Z,101079.19
2023-10-01T00:04:18.922Z,101073.63
2023-10-01T00:07:22.067Z,101083.16
2023-10-01T00:10:27.082Z,101070.97
2023-10-01T00:13:30.538Z,101071.75
2023-10-01T00:16:33.789Z,101074.47
2023-10-01T00:19:39.972Z,101073.91
2023-10-01T00:22:43.043Z,101073.56
2023-10-01T00:25:47.125Z,101061.81
2023-10-01T00:28:53.221Z,101061.06
2023-10-01T00:31:56.639Z,101058.63
2023-10-01T00:35:00.940Z,101058.31
2023-10-01T00:38:03.862Z,101050.41
2023-10-01T00:41:09.919Z,101054.72
2023-10-01T00:44:14.582Z,101050.25
2023-10-01T00:47:21.706Z,101057.34
2023-10-01T00:50:24.905Z,101056.91
2023-10-01T00:53:29.092Z,101055.13
2023-10-01T00:56:32.669Z,101056.09
2023-10-01T00:59:37.194Z,101059.34
2023-10-01T01:02:47.711Z,101059.09
2023-10-01T01:06:01.187Z,101060.41
2023-10-01T01:09:11.849Z,101054.22
2023-10-01T01:12:16.797Z,101058.94
2023-10-01T01:15:22.759Z,101048.25
2023-10-01T01:18:27.909Z,101064.34
2023-10-01T01:21:32.976Z,101071.91
2023-10-01T01:24:37.427Z,101078.13
2023-10-01T01:27:41.602Z,101078.56
2023-10-01T01:30:49.014Z,101086.03
2023-10-01T01:33:57.395Z,101091.75
2023-10-01T01:37:00.651Z,101099.66
2023-10-01T01:40:14.746Z,101105.88
2023-10-01T01:43:21.477Z,101106.78
2023-10-01T01:46:24.680Z,101099.00
2023-10-01T01:49:27.702Z,101102.72
2023-10-01T01:52:30.792Z,101102.47
2023-10-01T01:55:36.002Z,101102.47
2023-10-01T01:58:45.280Z,101100.84
2023-10-01T02:01:50.682Z,101113.09
2023-10-01T02:05:10.273Z,101112.25
2023-10-01T02:08:25.162Z,101125.53
2023-10-01T02:11:34.139Z,101131.94
2023-10-01T02:14:38.988Z,101124.91
2023-10-01T02:17:41.836Z,101129.34
2023-10-01T02:20:46.073Z,101141.91
2023-10-01T02:23:49.169Z,101148.78
2023-10-01T02:26:54.387Z,101154.63
2023-10-01T02:30:16.380Z,101158.09
2023-10-01T02:33:22.506Z,101174.34
2023-10-01T02:36:27.448Z,101178.78
2023-10-01T02:39:30.599Z,101169.09
2023-10-01T02:42:33.675Z,101183.94
2023-10-01T02:45:42.550Z,101183.94
2023-10-01T02:48:48.868Z,101188.44
2023-10-01T02:51:52.183Z,101182.31
2023-10-01T02:54:59.171Z,101187.91
2023-10-01T02:58:18.891Z,101184.13
2023-10-01T03:01:22.642Z,101178.94
2023-10-01T03:04:28.919Z,101181.94
2023-10-01T03:07:40.190Z,101176.78
2023-10-01T03:10:47.931Z,101187.19
2023-10-01T03:13:53.008Z,101187.28
2023-10-01T03:16:56.960Z,101183.13
2023-10-01T03:20:13.752Z,101179.69
2023-10-01T03:23:28.899Z,101178.84
2023-10-01T03:26:34.611Z,101180.63
2023-10-01T03:29:38.457Z,101178.50
2023-10-01T03:33:17.302Z,101182.13
2023-10-01T03:36:26.361Z,101185.16
2023-10-01T03:39:29.555Z,101173.25
2023-10-01T03:42:34.994Z,101178.63
2023-10-01T03:45:53.393Z,101176.78
2023-10-01T03:49:02.718Z,101182.41
2023-10-01T03:52:10.867Z,101187.88
2023-10-01T03:55:29.770Z,101178.00
2023-10-01T03:58:37.616Z,101178.22
2023-10-01T04:01:59.774Z,101179.91
2023-10-01T04:05:06.796Z,101176.78
2023-10-01T04:08:11.411Z,101172.84
2023-10-01T04:11:16.621Z,101182.28
2023-10-01T04:14:19.730Z,101175.56
2023-10-01T04:17:27.269Z,101177.00
2023-10-01T04:20:30.993Z,101186.16
2023-10-01T04:23:42.249Z,101180.44
2023-10-01T04:26:46.774Z,101182.06
2023-10-01T04:29:58.641Z,101183.97
2023-10-01T04:33:18.002Z,101186.34
2023-10-01T04:36:21.839Z,101199.31
2023-10-01T04:39:24.920Z,101195.38
2023-10-01T04:42:27.857Z,101202.31
2023-10-01T04:45:42.544Z,101206.94
2023-10-01T04:48:46.483Z,101209.66
2023-10-01T04:51:49.332Z,101211.69
2023-10-01T04:54:53.437Z,101215.25
2023-10-01T04:57:58.409Z,101215.56
2023-10-01T05:01:03.192Z,101230.00
2023-10-01T05:04:15.037Z,101235.06
2023-10-01T05:07:18.245Z,101235.03
2023-10-01T05:10:21.429Z,101231.19
2023-10-01T05:13:24.604Z,101230.19
2023-10-01T05:16:28.146Z,101223.19
2023-10-01T05:19:31.306Z,101224.13
2023-10-01T05:22:47.976Z,101224.00
2023-10-01T05:25:51.869Z,101228.69
2023-10-01T05:28:55.869Z,101233.34
2023-10-01T05:31:58.790Z,101232.47
2023-10-01T05:35:16.223Z,101233.84
2023-10-01T05:38:20.476Z,101236.31
2023-10-01T05:41:34.125Z,101243.81
2023-10-01T05:44:37.280Z,101247.19
2023-10-01T05:47:42.970Z,101250.44
2023-10-01T05:50:48.968Z,101259.03
2023-10-01T05:53:53.396Z,101261.34
2023-10-01T05:56:56.646Z,101252.25
2023-10-01T06:00:01.390Z,101264.69
2023-10-01T06:03:16.663Z,101259.91
2023-10-01T06:06:26.183Z,101257.38
2023-10-01T06:09:34.332Z,101263.50
2023-10-01T06:12:51.765Z,101270.41
2023-10-01T06:15:57.444Z,101274.19
2023-10-01T06:19:01.520Z,101263.50
2023-10-01T06:22:14.525Z,101261.38
2023-10-01T06:25:17.854Z,101256.09
2023-10-01T06:28:24.747Z,101259.88
2023-10-01T06:31:28.523Z,101264.00
2023-10-01T06:34:40.571Z,101260.94
2023-10-01T06:37:51.994Z,101268.66
2023-10-01T06:40:54.999Z,101262.19
2023-10-01T06:43:58.093Z,101266.56
2023-10-01T06:47:15.926Z,101273.97
2023-10-01T06:50:22.119Z,101268.97
2023-10-01T06:53:45.107Z,101275.63
2023-10-01T06:56:49.416Z,101272.97
2023-10-01T06:59:52.523Z,101269.69
2023-10-01T07:03:15.052Z,101273.59
2023-10-01T07:06:17.925Z,101282.53
2023-10-01T07:09:26.286Z,101280.75
2023-10-01T07:12:30.652Z,101281.94
2023-10-01T07:15:41.322Z,101291.22
2023-10-01T07:18:45.400Z,101308.59
2023-10-01T07:21:58.115Z,101313.09
2023-10-01T07:25:04.765Z,101309.91
2023-10-01T07:28:08.675Z,101308.00
2023-10-01T07:31:14.643Z,101306.84
2023-10-01T07:34:18.073Z,101322.78
2023-10-01T07:37:27.612Z,101322.81
2023-10-01T07:40:50.884Z,101323.91
2023-10-01T07:43:56.539Z,101324.25
2023-10-01T07:47:02.223Z,101324.25
2023-10-01T07:50:13.908Z,101316.97
2023-10-01T07:53:17.014Z,101321.81
2023-10-01T07:56:23.217Z,101320.28
2023-10-01T07:59:35.710Z,101326.09
2023-10-01T08:02:58.955Z,101326.88
2023-10-01T08:06:18.050Z,101327.50
2023-10-01T08:09:22.877Z,101311.25
2023-10-01T08:12:30.629Z,101313.56
2023-10-01T08:15:40.552Z,101311.34
2023-10-01T08:18:47.639Z,101310.53
2023-10-01T08:21:55.181Z,101311.75
2023-10-01T08:25:02.653Z,101312.09
2023-10-01T08:28:15.178Z,101319.13
2023-10-01T08:31:50.370Z,101317.34
2023-10-01T08:35:02.983Z,101324.16
2023-10-01T08:38:16.965Z,101321.25
2023-10-01T08:41:36.189Z,101326.00
2023-10-01T08:44:50.906Z,101330.94
2023-10-01T08:48:01.166Z,101330.66
2023-10-01T08:51:12.462Z,101322.31
2023-10-01T08:54:18.794Z,101326.06
2023-10-01T08:57:38.199Z,101328.75
2023-10-01T09:00:49.759Z,101330.00
2023-10-01T09:03:53.230Z,101322.06
2023-10-01T09:07:05.556Z,101331.22
2023-10-01T09:10:10.834Z,101323.72
2023-10-01T09:13:22.179Z,101328.25
2023-10-01T09:16:35.453Z,101340.56
2023-10-01T09:19:52.074Z,101334.31
2023-10-01T09:23:02.320Z,101326.91
2023-10-01T09:26:05.091Z,101326.06
2023-10-01T09:29:22.293Z,101316.44
2023-10-01T09:32:53.130Z,101325.78
2023-10-01T09:36:04.294Z,101317.25
2023-10-01T09:39:08.181Z,101315.28
2023-10-01T09:42:26.168Z,101319.81
2023-10-01T09:45:42.933Z,101323.66
2023-10-01T09:48:50.422Z,101316.22
2023-10-01T09:51:56.547Z,101307.47
2023-10-01T09:55:08.640Z,101297.81
2023-10-01T09:58:13.355Z,101300.13
2023-10-01T10:01:19.147Z,101297.06
2023-10-01T10:04:24.574Z,101300.91
2023-10-01T10:07:27.622Z,101303.25
2023-10-01T10:10:31.173Z,101305.69
2023-10-01T10:13:38.450Z,101305.41
2023-10-01T10:16:59.074Z,101306.16
2023-10-01T10:20:35.095Z,101311.38
2023-10-01T10:24:19.181Z,101308.63
2023-10-01T10:27:48.016Z,101312.09
2023-10-01T10:31:33.024Z,101296.31
2023-10-01T10:34:38.238Z,101297.03
2023-10-01T10:37:46.380Z,101291.09
2023-10-01T10:41:08.730Z,101295.69
2023-10-01T10:44:11.955Z,101280.13
2023-10-01T10:47:16.768Z,101286.34
2023-10-01T10:50:20.684Z,101287.22
2023-10-01T10:53:31.140Z,101281.16
2023-10-01T10:56:40.849Z,101270.88
2023-10-01T10:59:48.884Z,101266.97
2023-10-01T11:02:58.297Z,101278.31
2023-10-01T11:06:18.286Z,101270.03
2023-10-01T11:09:28.256Z,101269.53
2023-10-01T11:12:36.644Z,101273.00
2023-10-01T11:15:44.312Z,101267.31
2023-10-01T11:18:49.137Z,101272.19
2023-10-01T11:21:59.924Z,101268.38
2023-10-01T11:25:04.973Z,101268.66
2023-10-01T11:28:07.986Z,101261.66
2023-10-01T11:31:24.571Z,101262.31
2023-10-01T11:34:44.704Z,101257.72
2023-10-01T11:37:47.959Z,101267.88
2023-10-01T11:41:11.277Z,101258.97
2023-10-01T11:44:26.217Z,101265.69
2023-10-01T11:48:06.187Z,101263.81
2023-10-01T11:51:10.129Z,101269.81
2023-10-01T11:54:15.239Z,101269.44
2023-10-01T11:57:23.797Z,101263.31
2023-10-01T12:00:45.284Z,101258.63
2023-10-01T12:03:59.440Z,101252.81
2023-10-01T12:07:02.285Z,101241.25
2023-10-01T12:10:06.554Z,101251.50
2023-10-01T12:13:11.721Z,101235.72
2023-10-01T12:16:14.655Z,101238.59
2023-10-01T12:19:26.855Z,101235.94
2023-10-01T12:22:31.237Z,101225.00
2023-10-01T12:25:51.520Z,101229.88
2023-10-01T12:29:13.947Z,101237.22
2023-10-01T12:32:18.085Z,101233.66
2023-10-01T12:35:30.503Z,101235.28
2023-10-01T12:38:33.528Z,101222.03
2023-10-01T12:41:54.523Z,101223.31
2023-10-01T12:45:14.704Z,101218.78
2023-10-01T12:48:21.623Z,101214.75
2023-10-01T12:51:34.179Z,101212.09
2023-10-01T12:54:38.223Z,101208.75
2023-10-01T12:57:42.909Z,101210.75
2023-10-01T13:00:46.515Z,101203.41
2023-10-01T13:03:50.827Z,101203.25
2023-10-01T13:07:12.841Z,101204.38
2023-10-01T13:10:20.109Z,101198.13
2023-10-01T13:13:31.115Z,101194.19
2023-10-01T13:16:35.010Z,101183.59
2023-10-01T13:19:37.974Z,101190.53
2023-10-01T13:22:43.046Z,101189.06
2023-10-01T13:25:47.894Z,101173.78
2023-10-01T13:28:52.702Z,101182.03
2023-10-01T13:32:04.138Z,101178.28
2023-10-01T13:35:27.569Z,101183.25
2023-10-01T13:38:34.512Z,101176.94
2023-10-01T13:41:37.864Z,101172.09
2023-10-01T13:44:59.976Z,101166.25
2023-10-01T13:48:21.219Z,101167.38
2023-10-01T13:51:42.797Z,101177.09
2023-10-01T13:55:04.324Z,101165.59
2023-10-01T13:58:26.574Z,101163.63
2023-10-01T14:01:48.618Z,101157.66
2023-10-01T14:05:10.241Z,101155.06
2023-10-01T14:08:32.276Z,101160.19
2023-10-01T14:11:41.426Z,101155.41
2023-10-01T14:14:45.897Z,101156.66
2023-10-01T14:17:59.315Z,101155.94
2023-10-01T14:21:13.792Z,101161.03
2023-10-01T14:24:25.898Z,101154.44
2023-10-01T14:27:30.983Z,101154.19
2023-10-01T14:30:34.190Z,101139.75
2023-10-01T14:33:41.358Z,101137.94
2023-10-01T14:36:45.298Z,101138.56
2023-10-01T14:39:49.021Z,101142.25
2023-10-01T14:43:00.260Z,101151.31
2023-10-01T14:46:03.470Z,101141.34
2023-10-01T14:49:06.452Z,101146.13
2023-10-01T14:52:24.292Z,101145.66
2023-10-01T14:55:34.636Z,101148.59
2023-10-01T14:58:38.134Z,101151.34
2023-10-01T15:01:46.582Z,101148.91
2023-10-01T15:04:49.850Z,101148.47
2023-10-01T15:07:52.966Z,101150.59
2023-10-01T15:10:58.970Z,101149.50
2023-10-01T15:14:13.050Z,101146.94
2023-10-01T15:17:19.277Z,101148.00
2023-10-01T15:20:48.443Z,101152.59
2023-10-01T15:24:00.456Z,101146.28
2023-10-01T15:27:06.087Z,101150.59
2023-10-01T15:30:22.676Z,101140.78
2023-10-01T15:33:26.889Z,101150.44
2023-10-01T15:36:49.867Z,101153.84
2023-10-01T15:39:52.866Z,101150.94
2023-10-01T15:42:57.182Z,101151.72
2023-10-01T15:46:14.050Z,101153.25
2023-10-01T15:49:21.636Z,101152.00
2023-10-01T15:52:26.482Z,101159.38
2023-10-01T15:55:33.415Z,101152.78
2023-10-01T15:58:37.701Z,101149.88
2023-10-01T16:01:52.132Z,101155.25
2023-10-01T16:05:00.950Z,101157.69
2023-10-01T16:08:04.856Z,101153.50
2023-10-01T16:11:10.378Z,101152.09
2023-10-01T16:14:27.918Z,101153.00
2023-10-01T16:17:33.875Z,101156.94
2023-10-01T16:20:39.755Z,101162.59
2023-10-01T16:23:43.571Z,101176.03
2023-10-01T16:26:47.999Z,101169.06
2023-10-01T16:29:51.112Z,101179.38
2023-10-01T16:32:55.044Z,101188.03
2023-10-01T16:36:08.272Z,101183.50
2023-10-01T16:39:19.283Z,101186.19
2023-10-01T16:42:24.640Z,101192.28
2023-10-01T16:45:32.934Z,101201.28
2023-10-01T16:48:35.791Z,101197.25
2023-10-01T16:51:42.905Z,101202.56
2023-10-01T16:54:49.266Z,101203.69
2023-10-01T16:57:57.822Z,101208.97
2023-10-01T17:01:13.721Z,101211.59
2023-10-01T17:04:29.722Z,101206.97
2023-10-01T17:07:40.025Z,101215.47
2023-10-01T17:10:46.148Z,101224.28
2023-10-01T17:13:49.426Z,101211.72
2023-10-01T17:16:52.757Z,101219.16
2023-10-01T17:20:15.231Z,101219.50
2023-10-01T17:23:22.586Z,101218.47
2023-10-01T17:26:29.464Z,101221.91
2023-10-01T17:29:34.571Z,101220.38
2023-10-01T17:32:37.490Z,101222.25
2023-10-01T17:35:48.810Z,101220.16
2023-10-01T17:38:55.241Z,101219.81
2023-10-01T17:42:01.225Z,101229.47
2023-10-01T17:45:05.206Z,101229.47
2023-10-01T17:48:17.812Z,101240.56
2023-10-01T17:51:24.442Z,101237.28
2023-10-01T17:54:29.081Z,101246.25
2023-10-01T17:57:42.642Z,101241.97
2023-10-01T18:00:52.629Z,101243.88
2023-10-01T18:03:59.326Z,101243.56
2023-10-01T18:07:04.166Z,101244.41
2023-10-01T18:10:26.701Z,101237.38
2023-10-01T18:13:29.887Z,101245.63
2023-10-01T18:16:34.382Z,101248.44
2023-10-01T18:19:50.847Z,101250.63
2023-10-01T18:22:59.482Z,101241.53
2023-10-01T18:26:05.068Z,101236.13
2023-10-01T18:29:16.038Z,101240.31
2023-10-01T18:32:19.879Z,101246.56
2023-10-01T18:35:25.901Z,101251.13
2023-10-01T18:38:35.046Z,101251.94
2023-10-01T18:41:42.118Z,101249.06
2023-10-01T18:44:45.382Z,101255.06
2023-10-01T18:47:50.835Z,101253.28
2023-10-01T18:50:58.017Z,101249.91
2023-10-01T18:54:01.269Z,101250.44
2023-10-01T18:57:05.273Z,101254.88
2023-10-01T19:00:22.356Z,101261.97
2023-10-01T19:03:26.501Z,101247.66
2023-10-01T19:06:33.851Z,101251.88
2023-10-01T19:09:36.915Z,101255.81
2023-10-01T19:12:40.733Z,101256.44
2023-10-01T19:15:45.083Z,101260.78
2023-10-01T19:18:54.007Z,101261.66
2023-10-01T19:21:58.437Z,101264.91
2023-10-01T19:25:04.745Z,101270.63
2023-10-01T19:28:09.569Z,101263.19
2023-10-01T19:31:14.058Z,101267.88
2023-10-01T19:34:21.316Z,101269.25
2023-10-01T19:37:28.624Z,101273.28
2023-10-01T19:40:35.190Z,101270.53
2023-10-01T19:43:40.881Z,101272.13
2023-10-01T19:46:43.922Z,101266.31
2023-10-01T19:49:50.179Z,101276.03
2023-10-01T19:52:56.037Z,101274.56
2023-10-01T19:56:08.469Z,101267.50
2023-10-01T19:59:17.600Z,101264.88
2023-10-01T20:02:34.032Z,101263.59
2023-10-01T20:05:41.824Z,101266.53
2023-10-01T20:08:48.989Z,101279.63
2023-10-01T20:12:00.374Z,101269.09
2023-10-01T20:15:05.211Z,101284.78
2023-10-01T20:18:14.758Z,101273.81
2023-10-01T20:21:23.834Z,101274.03
2023-10-01T20:24:29.516Z,101280.84
2023-10-01T20:27:36.017Z,101274.34
2023-10-01T20:30:43.383Z,101264.94
2023-10-01T20:33:53.066Z,101268.25
2023-10-01T20:37:00.300Z,101274.09
2023-10-01T20:40:16.314Z,101271.03
2023-10-01T20:43:27.955Z,101271.63
2023-10-01T20:46:31.647Z,101257.94
2023-10-01T20:49:44.890Z,101262.19
2023-10-01T20:52:48.570Z,101264.66
2023-10-01T20:55:51.951Z,101268.56
2023-10-01T20:58:58.208Z,101262.03
2023-10-01T21:02:06.301Z,101259.94
2023-10-01T21:05:15.278Z,101268.50
2023-10-01T21:08:19.776Z,101256.50
2023-10-01T21:11:27.754Z,101266.75
2023-10-01T21:14:38.562Z,101264.78
2023-10-01T21:17:48.600Z,101273.00
2023-10-01T21:20:59.657Z,101273.72
2023-10-01T21:24:03.738Z,101276.03
2023-10-01T21:27:12.075Z,101273.22
2023-10-01T21:30:17.301Z,101267.41
2023-10-01T21:33:21.936Z,101266.41
2023-10-01T21:36:24.699Z,101270.97
2023-10-01T21:39:28.007Z,101265.50
2023-10-01T21:42:33.654Z,101267.88
2023-10-01T21:45:41.736Z,101265.50
2023-10-01T21:48:45.274Z,101270.56
2023-10-01T21:51:48.346Z,101272.03
2023-10-01T21:54:51.646Z,101270.19
2023-10-01T21:57:55.098Z,101271.47
2023-10-01T22:01:03.705Z,101275.41
2023-10-01T22:04:29.411Z,101261.00
2023-10-01T22:07:32.420Z,101259.44
2023-10-01T22:10:41.506Z,101256.59
2023-10-01T22:13:44.658Z,101264.09
2023-10-01T22:16:54.338Z,101257.91
2023-10-01T22:19:58.710Z,101262.13
2023-10-01T22:23:05.053Z,101254.13
2023-10-01T22:26:11.336Z,101251.81
2023-10-01T22:29:15.891Z,101247.50
2023-10-01T22:32:19.037Z,101239.94
2023-10-01T22:35:26.456Z,101242.88
2023-10-01T22:38:32.923Z,101246.44
2023-10-01T22:41:35.820Z,101251.28
2023-10-01T22:44:40.292Z,101246.97
2023-10-01T22:47:48.863Z,101252.28
2023-10-01T22:50:56.340Z,101253.84
2023-10-01T22:54:06.188Z,101245.34
2023-10-01T22:57:11.071Z,101250.38
2023-10-01T23:00:22.966Z,101241.22
2023-10-01T23:03:28.254Z,101232.59
2023-10-01T23:06:31.359Z,101235.91
2023-10-01T23:09:34.535Z,101233.28
2023-10-01T23:12:41.641Z,101240.66
2023-10-01T23:15:50.400Z,101236.28
2023-10-01T23:19:13.200Z,101234.97
2023-10-01T23:22:18.668Z,101227.28
2023-10-01T23:25:25.076Z,101236.69
2023-10-01T23:28:32.567Z,101231.75
2023-10-01T23:31:49.235Z,101237.88
2023-10-01T23:34:58.444Z,101236.47
2023-10-01T23:38:21.238Z,101243.28
2023-10-01T23:41:52.127Z,101238.59
2023-10-01T23:44:55.270Z,101232.47
2023-10-01T23:48:06.723Z,101231.69
2023-10-01T23:51:10.265Z,101224.56
2023-10-01T23:54:13.062Z,101232.97
2023-10-01T23:57:16.295Z,101235.97
